createdAt,value
2022-08-27T00:01:18.795Z,101954.72
2022-08-27T00:03:46.272Z,101963.31
2022-08-27T00:06:17.687Z,101948.19
2022-08-27T00:08:47.579Z,101949.84
2022-08-27T00:11:15.263Z,101950.94
2022-08-27T00:13:42.253Z,101946.03
2022-08-27T00:16:10.929Z,101945.59
2022-08-27T00:18:39.014Z,101944.56
2022-08-27T00:21:06.991Z,101938.09
2022-08-27T00:23:33.845Z,101939.81
2022-08-27T00:26:00.316Z,101920.72
2022-08-27T00:28:29.002Z,101932.59
2022-08-27T00:30:56.316Z,101929.78
2022-08-27T00:33:23.810Z,101931.63
2022-08-27T00:35:50.970Z,101922.72
2022-08-27T00:38:18.801Z,101929.06
2022-08-27T00:40:45.617Z,101923.13
2022-08-27T00:43:12.173Z,101913.75
2022-08-27T00:45:45.493Z,101917.34
2022-08-27T00:48:15.998Z,101905.44
2022-08-27T00:50:53.104Z,101914.69
2022-08-27T00:53:23.459Z,101907.81
2022-08-27T00:55:55.140Z,101912.03
2022-08-27T00:58:41.317Z,101909.56
2022-08-27T01:01:12.035Z,101909.72
2022-08-27T01:03:39.976Z,101902.59
2022-08-27T01:06:10.835Z,101909.81
2022-08-27T01:08:48.144Z,101906.56
2022-08-27T01:11:14.702Z,101914.44
2022-08-27T01:13:59.810Z,101913.22
2022-08-27T01:16:33.852Z,101914.16
2022-08-27T01:19:00.991Z,101936.22
2022-08-27T01:21:39.324Z,101929.47
2022-08-27T01:24:20.320Z,101921.59
2022-08-27T01:26:47.538Z,101921.59
2022-08-27T01:29:14.621Z,101910.63
2022-08-27T01:31:41.146Z,101922.31
2022-08-27T01:34:07.694Z,101917.47
2022-08-27T01:36:34.179Z,101923.03
2022-08-27T01:39:00.784Z,101928.78
2022-08-27T01:41:27.449Z,101938.09
2022-08-27T01:43:54.268Z,101935.66
2022-08-27T01:46:24.950Z,101946.41
2022-08-27T01:48:52.153Z,101940.03
2022-08-27T01:51:19.379Z,101941.25
2022-08-27T01:53:46.340Z,101936.72
2022-08-27T01:56:13.112Z,101943.94
2022-08-27T01:58:39.983Z,101948.97
2022-08-27T02:01:11.398Z,101942.97
2022-08-27T02:03:40.345Z,101948.47
2022-08-27T02:06:09.628Z,101945.66
2022-08-27T02:08:36.215Z,101945.69
2022-08-27T02:11:03.226Z,101941.22
2022-08-27T02:13:29.839Z,101944.53
2022-08-27T02:15:56.710Z,101950.91
2022-08-27T02:18:23.266Z,101951.00
2022-08-27T02:20:49.783Z,101951.97
2022-08-27T02:23:16.716Z,101943.69
2022-08-27T02:25:43.571Z,101941.25
2022-08-27T02:28:10.568Z,101942.06
2022-08-27T02:30:37.544Z,101941.97
2022-08-27T02:33:05.604Z,101937.72
2022-08-27T02:35:34.526Z,101941.75
2022-08-27T02:38:02.371Z,101937.31
2022-08-27T02:40:29.655Z,101933.81
2022-08-27T02:42:56.190Z,101935.34
2022-08-27T02:45:22.715Z,101939.50
2022-08-27T02:47:49.408Z,101940.19
2022-08-27T02:50:17.153Z,101944.88
2022-08-27T02:52:45.301Z,101937.78
2022-08-27T02:55:14.442Z,101928.88
2022-08-27T02:57:44.009Z,101931.41
2022-08-27T03:00:15.367Z,101937.53
2022-08-27T03:02:42.244Z,101926.78
2022-08-27T03:05:09.591Z,101935.31
2022-08-27T03:07:37.256Z,101933.59
2022-08-27T03:10:05.715Z,101925.78
2022-08-27T03:12:33.371Z,101935.78
2022-08-27T03:15:00.180Z,101925.84
2022-08-27T03:17:45.263Z,101921.59
2022-08-27T03:20:12.394Z,101928.00
2022-08-27T03:22:40.204Z,101930.53
2022-08-27T03:25:07.603Z,101925.28
2022-08-27T03:27:34.114Z,101925.78
2022-08-27T03:30:04.282Z,101922.84
2022-08-27T03:32:31.173Z,101919.50
2022-08-27T03:35:00.658Z,101928.47
2022-08-27T03:37:27.988Z,101924.78
2022-08-27T03:39:54.897Z,101922.13
2022-08-27T03:42:21.943Z,101914.03
2022-08-27T03:44:48.818Z,101919.13
2022-08-27T03:47:15.485Z,101922.47
2022-08-27T03:49:41.970Z,101924.56
2022-08-27T03:52:09.486Z,101928.91
2022-08-27T03:54:37.869Z,101926.19
2022-08-27T03:57:05.331Z,101930.88
2022-08-27T03:59:32.087Z,101934.78
2022-08-27T04:01:59.779Z,101934.22
2022-08-27T04:04:26.460Z,101936.34
2022-08-27T04:06:52.900Z,101932.56
2022-08-27T04:09:22.963Z,101934.50
2022-08-27T04:11:50.008Z,101927.59
2022-08-27T04:14:25.420Z,101923.84
2022-08-27T04:16:54.859Z,101927.84
2022-08-27T04:19:26.939Z,101922.81
2022-08-27T04:21:53.976Z,101934.94
2022-08-27T04:24:20.447Z,101939.47
2022-08-27T04:26:47.739Z,101928.72
2022-08-27T04:29:14.422Z,101930.25
2022-08-27T04:31:41.009Z,101929.38
2022-08-27T04:34:07.741Z,101929.50
2022-08-27T04:36:34.406Z,101927.59
2022-08-27T04:39:01.223Z,101928.78
2022-08-27T04:41:27.786Z,101929.81
2022-08-27T04:43:56.990Z,101922.50
2022-08-27T04:46:29.548Z,101924.41
2022-08-27T04:49:01.502Z,101935.63
2022-08-27T04:51:29.672Z,101934.16
2022-08-27T04:53:57.645Z,101931.31
2022-08-27T04:56:28.076Z,101934.94
2022-08-27T04:58:54.575Z,101941.63
2022-08-27T05:01:24.049Z,101945.19
2022-08-27T05:03:51.015Z,101941.66
2022-08-27T05:06:18.678Z,101936.91
2022-08-27T05:08:45.595Z,101939.06
2022-08-27T05:11:15.800Z,101939.91
2022-08-27T05:13:43.915Z,101944.44
2022-08-27T05:16:21.557Z,101950.91
2022-08-27T05:18:50.148Z,101937.03
2022-08-27T05:21:23.500Z,101946.47
2022-08-27T05:23:50.784Z,101933.50
2022-08-27T05:26:17.718Z,101950.31
2022-08-27T05:28:44.366Z,101942.47
2022-08-27T05:31:13.039Z,101931.81
2022-08-27T05:33:40.779Z,101931.28
2022-08-27T05:36:14.571Z,101931.00
2022-08-27T05:38:41.846Z,101922.78
2022-08-27T05:41:17.631Z,101924.53
2022-08-27T05:43:49.692Z,101918.22
2022-08-27T05:46:20.319Z,101904.88
2022-08-27T05:48:49.780Z,101895.69
2022-08-27T05:51:25.652Z,101889.53
2022-08-27T05:54:08.795Z,101885.00
2022-08-27T05:56:37.764Z,101870.69
2022-08-27T05:59:24.193Z,101868.13
2022-08-27T06:01:53.040Z,101855.47
2022-08-27T06:04:20.843Z,101860.75
2022-08-27T06:06:48.911Z,101853.50
2022-08-27T06:09:19.278Z,101857.50
2022-08-27T06:11:46.442Z,101856.97
2022-08-27T06:14:13.074Z,101848.13
2022-08-27T06:16:40.981Z,101854.13
2022-08-27T06:19:09.031Z,101847.78
2022-08-27T06:21:35.556Z,101847.50
2022-08-27T06:24:02.336Z,101856.59
2022-08-27T06:26:29.339Z,101854.41
2022-08-27T06:28:55.816Z,101864.91
2022-08-27T06:31:27.609Z,101857.84
2022-08-27T06:34:00.728Z,101850.13
2022-08-27T06:36:37.820Z,101850.34
2022-08-27T06:39:05.029Z,101845.00
2022-08-27T06:41:31.527Z,101830.38
2022-08-27T06:43:58.650Z,101829.75
2022-08-27T06:46:27.507Z,101828.03
2022-08-27T06:48:56.398Z,101827.72
2022-08-27T06:51:26.787Z,101825.38
2022-08-27T06:53:55.754Z,101815.41
2022-08-27T06:56:23.331Z,101802.88
2022-08-27T06:58:55.530Z,101798.34
2022-08-27T07:01:26.161Z,101788.88
2022-08-27T07:03:55.252Z,101784.72
2022-08-27T07:06:25.951Z,101779.88
2022-08-27T07:08:53.559Z,101757.16
2022-08-27T07:11:20.893Z,101747.38
2022-08-27T07:13:48.308Z,101747.25
2022-08-27T07:16:18.839Z,101732.84
2022-08-27T07:18:46.242Z,101734.13
2022-08-27T07:21:13.001Z,101730.75
2022-08-27T07:23:40.198Z,101722.53
2022-08-27T07:26:08.932Z,101718.72
2022-08-27T07:28:35.554Z,101709.88
2022-08-27T07:31:02.168Z,101704.63
2022-08-27T07:33:28.723Z,101693.75
2022-08-27T07:35:55.169Z,101691.06
2022-08-27T07:38:21.719Z,101685.31
2022-08-27T07:40:48.271Z,101682.16
2022-08-27T07:43:33.534Z,101678.38
2022-08-27T07:46:02.035Z,101677.53
2022-08-27T07:48:29.839Z,101671.03
2022-08-27T07:50:56.671Z,101660.53
2022-08-27T07:53:24.131Z,101660.16
2022-08-27T07:55:51.378Z,101665.31
2022-08-27T07:58:18.729Z,101658.81
2022-08-27T08:00:45.919Z,101670.66
2022-08-27T08:03:13.227Z,101666.66
2022-08-27T08:05:43.975Z,101659.69
2022-08-27T08:08:11.924Z,101662.34
2022-08-27T08:10:39.892Z,101661.31
2022-08-27T08:13:08.167Z,101650.66
2022-08-27T08:15:34.714Z,101655.72
2022-08-27T08:18:01.735Z,101646.19
2022-08-27T08:20:54.642Z,101649.09
2022-08-27T08:23:20.837Z,101636.94
2022-08-27T08:25:48.562Z,101634.53
2022-08-27T08:28:15.000Z,101631.91
2022-08-27T08:30:44.089Z,101628.84
2022-08-27T08:33:10.908Z,101617.72
2022-08-27T08:35:41.351Z,101618.97
2022-08-27T08:38:08.479Z,101601.56
2022-08-27T08:40:41.718Z,101590.69
2022-08-27T08:43:21.302Z,101588.59
2022-08-27T08:45:49.766Z,101582.03
2022-08-27T08:48:21.446Z,101574.13
2022-08-27T08:51:06.719Z,101582.44
2022-08-27T08:53:47.258Z,101582.97
2022-08-27T08:56:28.609Z,101570.44
2022-08-27T08:59:26.073Z,101559.75
2022-08-27T09:01:52.665Z,101566.94
2022-08-27T09:04:19.179Z,101567.47
2022-08-27T09:06:53.380Z,101565.84
2022-08-27T09:09:35.919Z,101569.09
2022-08-27T09:12:25.356Z,101569.69
2022-08-27T09:15:00.089Z,101565.97
2022-08-27T09:17:27.779Z,101564.25
2022-08-27T09:19:56.015Z,101563.25
2022-08-27T09:22:53.857Z,101550.78
2022-08-27T09:25:28.728Z,101553.34
2022-08-27T09:28:00.089Z,101552.06
2022-08-27T09:30:31.007Z,101545.75
2022-08-27T09:33:01.183Z,101538.09
2022-08-27T09:35:34.327Z,101536.44
2022-08-27T09:38:02.560Z,101535.28
2022-08-27T09:40:33.548Z,101532.53
2022-08-27T09:43:18.754Z,101525.34
2022-08-27T09:45:54.262Z,101521.09
2022-08-27T09:48:37.344Z,101520.91
2022-08-27T09:51:12.424Z,101512.56
2022-08-27T09:53:59.861Z,101515.16
2022-08-27T09:56:39.229Z,101516.44
2022-08-27T09:59:07.384Z,101514.41
2022-08-27T10:01:38.636Z,101507.63
2022-08-27T10:04:11.798Z,101497.81
2022-08-27T10:06:45.855Z,101496.56
2022-08-27T10:09:34.392Z,101495.28
2022-08-27T10:12:10.469Z,101487.91
2022-08-27T10:15:05.408Z,101497.53
2022-08-27T10:18:01.272Z,101483.63
2022-08-27T10:20:36.939Z,101478.94
2022-08-27T10:23:08.620Z,101472.84
2022-08-27T10:25:44.074Z,101484.88
2022-08-27T10:28:39.598Z,101474.72
2022-08-27T10:31:11.806Z,101473.41
2022-08-27T10:33:50.083Z,101480.09
2022-08-27T10:36:31.188Z,101474.56
2022-08-27T10:39:19.300Z,101469.50
2022-08-27T10:42:14.097Z,101464.63
2022-08-27T10:44:54.910Z,101467.47
2022-08-27T10:48:09.235Z,101464.59
2022-08-27T10:50:55.131Z,101466.63
2022-08-27T10:53:40.263Z,101468.75
2022-08-27T10:56:23.144Z,101467.31
2022-08-27T10:59:17.554Z,101472.00
2022-08-27T11:02:00.748Z,101472.84
2022-08-27T11:04:39.445Z,101469.28
2022-08-27T11:07:22.362Z,101465.09
2022-08-27T11:09:57.178Z,101456.47
2022-08-27T11:12:33.704Z,101423.59
2022-08-27T11:15:05.031Z,101395.94
2022-08-27T11:17:37.758Z,101364.97
2022-08-27T11:20:12.471Z,101362.03
2022-08-27T11:22:47.219Z,101375.97
2022-08-27T11:25:22.901Z,101372.63
2022-08-27T11:27:53.721Z,101410.94
2022-08-27T11:30:29.797Z,101463.50
2022-08-27T11:33:19.753Z,101558.78
2022-08-27T11:36:09.531Z,101572.00
2022-08-27T11:38:38.814Z,101558.31
2022-08-27T11:41:15.031Z,101561.56
2022-08-27T11:43:42.771Z,101562.94
2022-08-27T11:46:09.876Z,101538.78
2022-08-27T11:48:55.783Z,101495.59
2022-08-27T11:51:39.684Z,101496.94
2022-08-27T11:54:10.262Z,101491.03
2022-08-27T11:56:41.530Z,101470.56
2022-08-27T11:59:22.435Z,101360.88
2022-08-27T12:01:52.650Z,101386.91
2022-08-27T12:04:24.839Z,101395.22
2022-08-27T12:07:07.341Z,101363.81
2022-08-27T12:09:58.648Z,101362.72
2022-08-27T12:12:53.006Z,101323.44
2022-08-27T12:15:33.857Z,101249.53
2022-08-27T12:18:26.955Z,101286.34
2022-08-27T12:21:02.593Z,101244.06
2022-08-27T12:23:40.965Z,101309.38
2022-08-27T12:26:34.499Z,101192.41
2022-08-27T12:29:29.401Z,101349.00
2022-08-27T12:32:04.726Z,101201.50
2022-08-27T12:34:44.368Z,101191.69
2022-08-27T12:37:13.243Z,101288.13
2022-08-27T12:39:44.503Z,101242.41
2022-08-27T12:42:19.198Z,101184.72
2022-08-27T12:44:45.745Z,101046.78
2022-08-27T12:47:16.043Z,101202.88
2022-08-27T12:49:53.828Z,101217.59
2022-08-27T12:52:37.493Z,101132.41
2022-08-27T12:55:12.072Z,101095.88
2022-08-27T12:57:53.634Z,101190.50
2022-08-27T13:00:26.376Z,101103.03
2022-08-27T13:03:22.092Z,101038.88
2022-08-27T13:05:51.021Z,101254.28
2022-08-27T13:08:36.447Z,101226.03
2022-08-27T13:11:26.655Z,101239.84
2022-08-27T13:14:09.638Z,101119.34
2022-08-27T13:16:39.898Z,101212.50
2022-08-27T13:19:07.055Z,101103.31
2022-08-27T13:21:33.937Z,101030.50
2022-08-27T13:24:06.532Z,100917.25
2022-08-27T13:26:37.451Z,100958.50
2022-08-27T13:29:08.152Z,100824.50
2022-08-27T13:31:35.928Z,100955.03
2022-08-27T13:34:03.869Z,100955.31
2022-08-27T13:36:36.970Z,101016.88
2022-08-27T13:39:07.118Z,101038.16
2022-08-27T13:41:37.101Z,101048.28
2022-08-27T13:44:10.707Z,101141.75
2022-08-27T13:46:49.618Z,100998.91
2022-08-27T13:49:25.621Z,101001.50
2022-08-27T13:52:09.759Z,100925.00
2022-08-27T13:54:36.853Z,101066.63
2022-08-27T13:57:10.117Z,100998.91
2022-08-27T13:59:42.973Z,100946.19
2022-08-27T14:02:10.463Z,100959.75
2022-08-27T14:05:11.107Z,100814.59
2022-08-27T14:07:46.885Z,100837.03
2022-08-27T14:10:35.958Z,100691.03
2022-08-27T14:13:02.618Z,100753.88
2022-08-27T14:15:45.913Z,100881.97
2022-08-27T14:18:58.929Z,100839.22
2022-08-27T14:21:22.602Z,100796.88
2022-08-27T14:23:49.494Z,100858.53
2022-08-27T14:26:17.308Z,100773.84
2022-08-27T14:28:44.854Z,100696.66
2022-08-27T14:31:12.126Z,100695.16
2022-08-27T14:33:39.273Z,100864.56
2022-08-27T14:36:07.331Z,100810.06
2022-08-27T14:38:36.093Z,100753.38
2022-08-27T14:41:03.731Z,100816.06
2022-08-27T14:43:34.697Z,100889.13
2022-08-27T14:46:05.079Z,100777.53
2022-08-27T14:48:34.514Z,100700.63
2022-08-27T14:51:09.407Z,100708.34
2022-08-27T14:53:35.922Z,100699.38
2022-08-27T14:56:02.982Z,100702.91
2022-08-27T14:58:30.056Z,100792.44
2022-08-27T15:00:57.856Z,100700.28
2022-08-27T15:03:25.493Z,100733.19
2022-08-27T15:05:55.783Z,100672.34
2022-08-27T15:08:27.678Z,100684.06
2022-08-27T15:10:56.796Z,100834.56
2022-08-27T15:13:24.029Z,100886.28
2022-08-27T15:15:52.292Z,100849.31
2022-08-27T15:18:19.937Z,100797.72
2022-08-27T15:20:46.546Z,100792.53
2022-08-27T15:23:15.391Z,100856.28
2022-08-27T15:25:44.637Z,100739.28
2022-08-27T15:28:11.330Z,100947.63
2022-08-27T15:30:40.590Z,100770.28
2022-08-27T15:33:07.760Z,100693.81
2022-08-27T15:35:34.761Z,100954.66
2022-08-27T15:38:01.772Z,100902.66
2022-08-27T15:40:33.459Z,100970.25
2022-08-27T15:43:04.495Z,100889.75
2022-08-27T15:45:32.241Z,100799.50
2022-08-27T15:47:59.998Z,100766.50
2022-08-27T15:50:28.438Z,100806.59
2022-08-27T15:52:59.951Z,100696.19
2022-08-27T15:55:29.861Z,100834.69
2022-08-27T15:57:57.256Z,100898.75
2022-08-27T16:00:24.757Z,100989.06
2022-08-27T16:02:52.455Z,100907.28
2022-08-27T16:05:19.971Z,100982.38
2022-08-27T16:07:46.958Z,100926.97
2022-08-27T16:10:15.533Z,100949.56
2022-08-27T16:12:42.206Z,100833.38
2022-08-27T16:15:09.111Z,100929.19
2022-08-27T16:17:36.058Z,100947.72
2022-08-27T16:20:04.691Z,100990.31
2022-08-27T16:22:31.417Z,101050.50
2022-08-27T16:24:58.105Z,100984.88
2022-08-27T16:27:24.767Z,100899.94
2022-08-27T16:29:51.432Z,100946.19
2022-08-27T16:32:18.769Z,100976.16
2022-08-27T16:34:52.532Z,100971.06
2022-08-27T16:37:23.406Z,100822.97
2022-08-27T16:39:50.148Z,100907.50
2022-08-27T16:42:16.934Z,100805.22
2022-08-27T16:44:43.764Z,100937.91
2022-08-27T16:47:10.480Z,100807.88
2022-08-27T16:49:55.825Z,100953.53
2022-08-27T16:52:24.025Z,100968.53
2022-08-27T16:54:52.053Z,101032.25
2022-08-27T16:57:20.329Z,101077.25
2022-08-27T16:59:46.849Z,101016.47
2022-08-27T17:02:30.723Z,101166.16
2022-08-27T17:05:12.150Z,101182.16
2022-08-27T17:07:48.202Z,101252.56
2022-08-27T17:10:17.708Z,101257.50
2022-08-27T17:12:47.054Z,101353.31
2022-08-27T17:15:16.847Z,101279.63
2022-08-27T17:17:44.635Z,101245.16
2022-08-27T17:20:11.403Z,101332.91
2022-08-27T17:22:38.483Z,101342.88
2022-08-27T17:25:06.039Z,101385.66
2022-08-27T17:27:32.954Z,101393.06
2022-08-27T17:29:59.868Z,101472.88
2022-08-27T17:32:27.672Z,101501.00
2022-08-27T17:34:54.539Z,101488.72
2022-08-27T17:37:21.134Z,101532.31
2022-08-27T17:39:47.711Z,101584.91
2022-08-27T17:42:14.631Z,101599.63
2022-08-27T17:44:41.163Z,101627.91
2022-08-27T17:47:09.059Z,101656.59
2022-08-27T17:49:36.881Z,101669.69
2022-08-27T17:52:15.078Z,101695.09
2022-08-27T17:54:51.192Z,101685.69
2022-08-27T17:57:19.930Z,101692.94
2022-08-27T17:59:47.575Z,101686.69
2022-08-27T18:02:42.911Z,101677.91
2022-08-27T18:05:13.027Z,101676.44
2022-08-27T18:07:41.222Z,101666.28
2022-08-27T18:10:10.079Z,101664.41
2022-08-27T18:12:37.327Z,101664.53
2022-08-27T18:15:29.116Z,101657.00
2022-08-27T18:17:57.093Z,101647.13
2022-08-27T18:20:25.121Z,101641.75
2022-08-27T18:22:52.115Z,101645.44
2022-08-27T18:25:24.470Z,101623.38
2022-08-27T18:27:56.528Z,101614.53
2022-08-27T18:30:24.211Z,101604.69
2022-08-27T18:32:51.417Z,101592.13
2022-08-27T18:35:24.707Z,101563.63
2022-08-27T18:37:51.277Z,101531.50
2022-08-27T18:40:20.721Z,101479.53
2022-08-27T18:42:48.275Z,101446.47
2022-08-27T18:45:19.008Z,101424.38
2022-08-27T18:47:46.001Z,101409.88
2022-08-27T18:50:17.492Z,101391.44
2022-08-27T18:52:46.248Z,101374.25
2022-08-27T18:55:13.938Z,101374.47
2022-08-27T18:57:40.639Z,101373.97
2022-08-27T19:00:10.603Z,101388.38
2022-08-27T19:02:38.025Z,101388.88
2022-08-27T19:05:06.353Z,101382.28
2022-08-27T19:07:32.832Z,101377.63
2022-08-27T19:09:59.536Z,101389.28
2022-08-27T19:12:26.071Z,101389.66
2022-08-27T19:14:52.905Z,101379.41
2022-08-27T19:17:33.065Z,101383.41
2022-08-27T19:20:00.777Z,101391.50
2022-08-27T19:22:28.162Z,101391.00
2022-08-27T19:24:54.835Z,101407.00
2022-08-27T19:27:25.095Z,101405.44
2022-08-27T19:29:52.314Z,101393.25
2022-08-27T19:32:19.907Z,101398.72
2022-08-27T19:34:47.028Z,101400.06
2022-08-27T19:37:20.267Z,101399.31
2022-08-27T19:39:47.096Z,101401.97
2022-08-27T19:42:13.763Z,101395.69
2022-08-27T19:44:40.396Z,101401.00
2022-08-27T19:47:10.225Z,101399.06
2022-08-27T19:49:37.130Z,101397.72
2022-08-27T19:52:08.275Z,101403.44
2022-08-27T19:54:40.045Z,101405.09
2022-08-27T19:57:13.920Z,101402.41
2022-08-27T19:59:40.464Z,101406.44
2022-08-27T20:02:08.899Z,101408.34
2022-08-27T20:04:47.575Z,101409.28
2022-08-27T20:07:22.884Z,101407.63
2022-08-27T20:09:50.175Z,101403.94
2022-08-27T20:12:17.579Z,101403.91
2022-08-27T20:14:44.295Z,101401.94
2022-08-27T20:17:13.612Z,101405.53
2022-08-27T20:19:42.953Z,101397.94
2022-08-27T20:22:11.048Z,101406.19
2022-08-27T20:24:37.636Z,101404.19
2022-08-27T20:27:04.828Z,101397.66
2022-08-27T20:29:32.713Z,101401.75
2022-08-27T20:31:59.560Z,101408.22
2022-08-27T20:34:26.153Z,101396.91
2022-08-27T20:36:56.036Z,101406.69
2022-08-27T20:39:22.547Z,101405.63
2022-08-27T20:41:48.995Z,101405.63
2022-08-27T20:44:16.961Z,101408.03
2022-08-27T20:46:43.661Z,101412.94
2022-08-27T20:49:15.392Z,101408.53
2022-08-27T20:52:01.982Z,101414.34
2022-08-27T20:54:28.676Z,101409.59
2022-08-27T20:56:56.452Z,101404.25
2022-08-27T20:59:41.637Z,101383.97
2022-08-27T21:02:11.334Z,101377.03
2022-08-27T21:04:46.566Z,101379.09
2022-08-27T21:07:14.605Z,101379.81
2022-08-27T21:09:56.637Z,101380.56
2022-08-27T21:12:26.347Z,101391.25
2022-08-27T21:14:56.047Z,101393.34
2022-08-27T21:17:24.939Z,101395.16
2022-08-27T21:19:52.029Z,101384.72
2022-08-27T21:22:19.203Z,101397.31
2022-08-27T21:24:47.406Z,101397.94
2022-08-27T21:27:15.392Z,101389.94
2022-08-27T21:29:44.629Z,101385.78
2022-08-27T21:32:11.528Z,101401.84
2022-08-27T21:34:38.007Z,101396.72
2022-08-27T21:37:04.847Z,101398.19
2022-08-27T21:39:32.769Z,101394.56
2022-08-27T21:42:01.057Z,101401.00
2022-08-27T21:44:28.278Z,101401.31
2022-08-27T21:46:54.997Z,101396.06
2022-08-27T21:49:22.032Z,101402.25
2022-08-27T21:51:48.511Z,101404.16
2022-08-27T21:54:15.139Z,101400.53
2022-08-27T21:56:43.387Z,101406.78
2022-08-27T21:59:10.011Z,101411.22
2022-08-27T22:01:36.812Z,101413.25
2022-08-27T22:04:04.152Z,101422.31
2022-08-27T22:06:30.878Z,101422.19
2022-08-27T22:08:57.518Z,101435.13
2022-08-27T22:11:25.716Z,101437.03
2022-08-27T22:13:53.192Z,101437.25
2022-08-27T22:16:19.930Z,101441.38
2022-08-27T22:18:47.514Z,101448.59
2022-08-27T22:21:21.187Z,101447.22
2022-08-27T22:23:47.640Z,101443.97
2022-08-27T22:26:14.129Z,101453.25
2022-08-27T22:28:40.582Z,101451.84
2022-08-27T22:31:07.887Z,101458.72
2022-08-27T22:33:34.445Z,101469.09
2022-08-27T22:36:01.175Z,101471.06
2022-08-27T22:38:27.767Z,101481.91
2022-08-27T22:40:54.285Z,101490.91
2022-08-27T22:43:21.114Z,101493.25
2022-08-27T22:45:47.634Z,101498.19
2022-08-27T22:48:14.285Z,101504.50
2022-08-27T22:50:41.027Z,101507.78
2022-08-27T22:53:08.491Z,101504.50
2022-08-27T22:55:35.215Z,101506.03
2022-08-27T22:58:02.133Z,101512.50
2022-08-27T23:00:32.564Z,101520.31
2022-08-27T23:02:59.169Z,101528.41
2022-08-27T23:05:26.353Z,101527.75
2022-08-27T23:07:54.607Z,101530.38
2022-08-27T23:10:24.073Z,101533.16
2022-08-27T23:12:53.542Z,101539.91
2022-08-27T23:15:23.326Z,101535.59
2022-08-27T23:17:49.822Z,101534.75
2022-08-27T23:20:16.950Z,101537.72
2022-08-27T23:22:45.394Z,101541.41
2022-08-27T23:25:31.505Z,101539.50
2022-08-27T23:27:59.739Z,101535.47
2022-08-27T23:30:27.036Z,101535.88
2022-08-27T23:32:54.775Z,101521.38
2022-08-27T23:35:22.702Z,101525.91
2022-08-27T23:37:50.327Z,101527.44
2022-08-27T23:40:17.941Z,101522.38
2022-08-27T23:42:45.055Z,101532.50
2022-08-27T23:45:18.941Z,101532.88
2022-08-27T23:47:45.426Z,101539.19
2022-08-27T23:50:12.258Z,101541.06
2022-08-27T23:52:39.152Z,101545.63
2022-08-27T23:55:07.036Z,101541.47
2022-08-27T23:57:33.966Z,101543.44
